sensor_id;sensor_type;location;lat;lon;timestamp;P1;P2;P0
72329;PMS5003;69154;52.076;5.110;2023-08-20T00:01:56;5;5;
72329;PMS5003;69154;52.076;5.110;2023-08-20T00:04:21;6;5;
72329;PMS5003;69154;52.076;5.110;2023-08-20T00:06:47;3;3;
72329;PMS5003;69154;52.076;5.110;2023-08-20T00:09:13;4;4;
72329;PMS5003;69154;52.076;5.110;2023-08-20T00:11:38;3;3;
72329;PMS5003;69154;52.076;5.110;2023-08-20T00:14:14;3;3;
72329;PMS5003;69154;52.076;5.110;2023-08-20T00:16:30;4;3;
72329;PMS5003;69154;52.076;5.110;2023-08-20T00:18:56;4;3;
72329;PMS5003;69154;52.076;5.110;2023-08-20T00:21:21;3;2;
72329;PMS5003;69154;52.076;5.110;2023-08-20T00:23:47;6;4;
72329;PMS5003;69154;52.076;5.110;2023-08-20T00:26:13;2;2;
72329;PMS5003;69154;52.076;5.110;2023-08-20T00:28:38;5;4;
72329;PMS5003;69154;52.076;5.110;2023-08-20T00:31:04;6;5;
72329;PMS5003;69154;52.076;5.110;2023-08-20T00:33:30;5;4;
72329;PMS5003;69154;52.076;5.110;2023-08-20T00:36:01;4;3;
72329;PMS5003;69154;52.076;5.110;2023-08-20T00:38:21;3;3;
72329;PMS5003;69154;52.076;5.110;2023-08-20T00:40:47;3;3;
72329;PMS5003;69154;52.076;5.110;2023-08-20T00:43:13;4;3;
72329;PMS5003;69154;52.076;5.110;2023-08-20T00:45:40;3;3;
72329;PMS5003;69154;52.076;5.110;2023-08-20T00:48:05;4;4;
72329;PMS5003;69154;52.076;5.110;2023-08-20T00:50:30;5;4;
72329;PMS5003;69154;52.076;5.110;2023-08-20T00:53:01;4;3;
72329;PMS5003;69154;52.076;5.110;2023-08-20T00:55:22;6;5;
72329;PMS5003;69154;52.076;5.110;2023-08-20T00:57:47;6;6;
72329;PMS5003;69154;52.076;5.110;2023-08-20T01:00:13;5;5;
72329;PMS5003;69154;52.076;5.110;2023-08-20T01:02:39;6;6;
72329;PMS5003;69154;52.076;5.110;2023-08-20T01:05:05;6;6;
72329;PMS5003;69154;52.076;5.110;2023-08-20T01:07:33;5;4;
72329;PMS5003;69154;52.076;5.110;2023-08-20T01:09:57;5;5;
72329;PMS5003;69154;52.076;5.110;2023-08-20T01:12:22;6;4;
72329;PMS5003;69154;52.076;5.110;2023-08-20T01:14:48;6;6;
72329;PMS5003;69154;52.076;5.110;2023-08-20T01:17:14;4;4;
72329;PMS5003;69154;52.076;5.110;2023-08-20T01:19:39;9;7;
72329;PMS5003;69154;52.076;5.110;2023-08-20T01:22:09;7;6;
72329;PMS5003;69154;52.076;5.110;2023-08-20T01:24:36;6;6;
72329;PMS5003;69154;52.076;5.110;2023-08-20T01:27:01;6;6;
72329;PMS5003;69154;52.076;5.110;2023-08-20T01:29:22;5;5;
72329;PMS5003;69154;52.076;5.110;2023-08-20T01:31:48;8;7;
72329;PMS5003;69154;52.076;5.110;2023-08-20T01:34:14;5;5;
72329;PMS5003;69154;52.076;5.110;2023-08-20T01:36:39;5;5;
72329;PMS5003;69154;52.076;5.110;2023-08-20T01:39:05;5;5;
72329;PMS5003;69154;52.076;5.110;2023-08-20T01:41:31;7;7;
72329;PMS5003;69154;52.076;5.110;2023-08-20T01:43:57;5;4;
72329;PMS5003;69154;52.076;5.110;2023-08-20T01:46:23;5;5;
72329;PMS5003;69154;52.076;5.110;2023-08-20T01:48:49;5;5;
72329;PMS5003;69154;52.076;5.110;2023-08-20T01:51:14;7;7;
72329;PMS5003;69154;52.076;5.110;2023-08-20T01:53:40;6;6;
72329;PMS5003;69154;52.076;5.110;2023-08-20T01:56:10;9;6;
72329;PMS5003;69154;52.076;5.110;2023-08-20T01:58:32;6;6;
72329;PMS5003;69154;52.076;5.110;2023-08-20T02:00:57;6;6;
72329;PMS5003;69154;52.076;5.110;2023-08-20T02:03:23;7;7;
72329;PMS5003;69154;52.076;5.110;2023-08-20T02:05:49;7;6;
72329;PMS5003;69154;52.076;5.110;2023-08-20T02:08:15;7;7;
72329;PMS5003;69154;52.076;5.110;2023-08-20T02:10:41;8;8;
72329;PMS5003;69154;52.076;5.110;2023-08-20T02:13:07;8;6;
72329;PMS5003;69154;52.076;5.110;2023-08-20T02:15:32;6;5;
72329;PMS5003;69154;52.076;5.110;2023-08-20T02:17:58;6;6;
72329;PMS5003;69154;52.076;5.110;2023-08-20T02:20:24;6;6;
72329;PMS5003;69154;52.076;5.110;2023-08-20T02:22:50;5;5;
72329;PMS5003;69154;52.076;5.110;2023-08-20T02:25:16;8;6;
72329;PMS5003;69154;52.076;5.110;2023-08-20T02:27:42;8;8;
72329;PMS5003;69154;52.076;5.110;2023-08-20T02:30:08;6;6;
72329;PMS5003;69154;52.076;5.110;2023-08-20T02:32:33;7;7;
72329;PMS5003;69154;52.076;5.110;2023-08-20T02:34:59;6;6;
72329;PMS5003;69154;52.076;5.110;2023-08-20T02:37:25;7;7;
72329;PMS5003;69154;52.076;5.110;2023-08-20T02:39:50;7;7;
72329;PMS5003;69154;52.076;5.110;2023-08-20T02:42:16;6;6;
72329;PMS5003;69154;52.076;5.110;2023-08-20T02:44:42;6;6;
72329;PMS5003;69154;52.076;5.110;2023-08-20T02:47:08;10;9;
72329;PMS5003;69154;52.076;5.110;2023-08-20T02:49:33;7;7;
72329;PMS5003;69154;52.076;5.110;2023-08-20T02:51:59;7;6;
72329;PMS5003;69154;52.076;5.110;2023-08-20T02:54:25;8;8;
72329;PMS5003;69154;52.076;5.110;2023-08-20T02:56:50;7;5;
72329;PMS5003;69154;52.076;5.110;2023-08-20T02:59:16;5;5;
72329;PMS5003;69154;52.076;5.110;2023-08-20T03:01:42;10;9;
72329;PMS5003;69154;52.076;5.110;2023-08-20T03:04:08;8;7;
72329;PMS5003;69154;52.076;5.110;2023-08-20T03:06:34;7;6;
72329;PMS5003;69154;52.076;5.110;2023-08-20T03:08:59;8;8;
72329;PMS5003;69154;52.076;5.110;2023-08-20T03:11:25;8;8;
72329;PMS5003;69154;52.076;5.110;2023-08-20T03:13:51;7;7;
72329;PMS5003;69154;52.076;5.110;2023-08-20T03:16:16;9;8;
72329;PMS5003;69154;52.076;5.110;2023-08-20T03:18:42;7;6;
72329;PMS5003;69154;52.076;5.110;2023-08-20T03:21:08;9;6;
72329;PMS5003;69154;52.076;5.110;2023-08-20T03:23:33;8;8;
72329;PMS5003;69154;52.076;5.110;2023-08-20T03:25:59;8;7;
72329;PMS5003;69154;52.076;5.110;2023-08-20T03:28:25;8;6;
72329;PMS5003;69154;52.076;5.110;2023-08-20T03:30:51;7;7;
72329;PMS5003;69154;52.076;5.110;2023-08-20T03:33:16;8;7;
72329;PMS5003;69154;52.076;5.110;2023-08-20T03:35:42;5;5;
72329;PMS5003;69154;52.076;5.110;2023-08-20T03:38:08;6;5;
72329;PMS5003;69154;52.076;5.110;2023-08-20T03:40:34;7;6;
72329;PMS5003;69154;52.076;5.110;2023-08-20T03:42:59;5;5;
72329;PMS5003;69154;52.076;5.110;2023-08-20T03:45:25;9;7;
72329;PMS5003;69154;52.076;5.110;2023-08-20T03:47:51;8;8;
72329;PMS5003;69154;52.076;5.110;2023-08-20T03:50:17;5;5;
72329;PMS5003;69154;52.076;5.110;2023-08-20T03:52:42;4;4;
72329;PMS5003;69154;52.076;5.110;2023-08-20T03:55:08;5;5;
72329;PMS5003;69154;52.076;5.110;2023-08-20T03:57:34;7;6;
72329;PMS5003;69154;52.076;5.110;2023-08-20T04:00:00;8;8;
72329;PMS5003;69154;52.076;5.110;2023-08-20T04:02:26;7;6;
72329;PMS5003;69154;52.076;5.110;2023-08-20T04:04:52;10;7;
72329;PMS5003;69154;52.076;5.110;2023-08-20T04:07:18;7;6;
72329;PMS5003;69154;52.076;5.110;2023-08-20T04:09:43;6;6;
72329;PMS5003;69154;52.076;5.110;2023-08-20T04:12:10;6;6;
72329;PMS5003;69154;52.076;5.110;2023-08-20T04:14:35;7;6;
72329;PMS5003;69154;52.076;5.110;2023-08-20T04:17:01;7;6;
72329;PMS5003;69154;52.076;5.110;2023-08-20T04:19:27;7;5;
72329;PMS5003;69154;52.076;5.110;2023-08-20T04:21:53;7;6;
72329;PMS5003;69154;52.076;5.110;2023-08-20T04:24:18;7;7;
72329;PMS5003;69154;52.076;5.110;2023-08-20T04:26:44;9;7;
72329;PMS5003;69154;52.076;5.110;2023-08-20T04:29:10;8;8;
72329;PMS5003;69154;52.076;5.110;2023-08-20T04:31:36;8;7;
72329;PMS5003;69154;52.076;5.110;2023-08-20T04:34:02;7;6;
72329;PMS5003;69154;52.076;5.110;2023-08-20T04:36:28;6;6;
72329;PMS5003;69154;52.076;5.110;2023-08-20T04:38:54;7;6;
72329;PMS5003;69154;52.076;5.110;2023-08-20T04:41:19;7;6;
72329;PMS5003;69154;52.076;5.110;2023-08-20T04:43:45;5;5;
72329;PMS5003;69154;52.076;5.110;2023-08-20T04:46:10;7;7;
72329;PMS5003;69154;52.076;5.110;2023-08-20T04:48:36;5;5;
72329;PMS5003;69154;52.076;5.110;2023-08-20T04:51:02;6;6;
72329;PMS5003;69154;52.076;5.110;2023-08-20T04:53:28;6;6;
72329;PMS5003;69154;52.076;5.110;2023-08-20T04:55:53;6;5;
72329;PMS5003;69154;52.076;5.110;2023-08-20T04:58:19;5;5;
72329;PMS5003;69154;52.076;5.110;2023-08-20T05:00:45;5;5;
72329;PMS5003;69154;52.076;5.110;2023-08-20T05:03:11;6;6;
72329;PMS5003;69154;52.076;5.110;2023-08-20T05:05:37;6;6;
72329;PMS5003;69154;52.076;5.110;2023-08-20T05:08:03;6;6;
72329;PMS5003;69154;52.076;5.110;2023-08-20T05:10:28;8;7;
72329;PMS5003;69154;52.076;5.110;2023-08-20T05:12:54;7;6;
72329;PMS5003;69154;52.076;5.110;2023-08-20T05:15:20;5;5;
72329;PMS5003;69154;52.076;5.110;2023-08-20T05:17:46;11;11;
72329;PMS5003;69154;52.076;5.110;2023-08-20T05:20:12;5;5;
72329;PMS5003;69154;52.076;5.110;2023-08-20T05:22:38;5;5;
72329;PMS5003;69154;52.076;5.110;2023-08-20T05:25:04;6;4;
72329;PMS5003;69154;52.076;5.110;2023-08-20T05:27:29;6;5;
72329;PMS5003;69154;52.076;5.110;2023-08-20T05:29:55;5;4;
72329;PMS5003;69154;52.076;5.110;2023-08-20T05:32:21;5;5;
72329;PMS5003;69154;52.076;5.110;2023-08-20T05:34:47;6;6;
72329;PMS5003;69154;52.076;5.110;2023-08-20T05:37:12;7;6;
72329;PMS5003;69154;52.076;5.110;2023-08-20T05:39:40;4;4;
72329;PMS5003;69154;52.076;5.110;2023-08-20T05:42:04;5;5;
72329;PMS5003;69154;52.076;5.110;2023-08-20T05:44:30;4;4;
72329;PMS5003;69154;52.076;5.110;2023-08-20T05:46:56;5;4;
72329;PMS5003;69154;52.076;5.110;2023-08-20T05:49:21;7;5;
72329;PMS5003;69154;52.076;5.110;2023-08-20T05:51:47;5;5;
72329;PMS5003;69154;52.076;5.110;2023-08-20T05:54:13;5;4;
72329;PMS5003;69154;52.076;5.110;2023-08-20T05:56:38;7;7;
72329;PMS5003;69154;52.076;5.110;2023-08-20T05:59:03;5;5;
72329;PMS5003;69154;52.076;5.110;2023-08-20T06:01:29;4;4;
72329;PMS5003;69154;52.076;5.110;2023-08-20T06:03:55;4;3;
72329;PMS5003;69154;52.076;5.110;2023-08-20T06:06:20;7;5;
72329;PMS5003;69154;52.076;5.110;2023-08-20T06:08:46;3;3;
72329;PMS5003;69154;52.076;5.110;2023-08-20T06:11:11;5;4;
72329;PMS5003;69154;52.076;5.110;2023-08-20T06:13:37;2;2;
72329;PMS5003;69154;52.076;5.110;2023-08-20T06:16:03;5;4;
72329;PMS5003;69154;52.076;5.110;2023-08-20T06:18:28;3;3;
72329;PMS5003;69154;52.076;5.110;2023-08-20T06:20:54;5;4;
72329;PMS5003;69154;52.076;5.110;2023-08-20T06:23:19;4;4;
72329;PMS5003;69154;52.076;5.110;2023-08-20T06:25:45;2;2;
72329;PMS5003;69154;52.076;5.110;2023-08-20T06:28:11;6;6;
72329;PMS5003;69154;52.076;5.110;2023-08-20T06:30:37;4;4;
72329;PMS5003;69154;52.076;5.110;2023-08-20T06:33:02;6;5;
72329;PMS5003;69154;52.076;5.110;2023-08-20T06:35:28;4;3;
72329;PMS5003;69154;52.076;5.110;2023-08-20T06:37:54;4;4;
72329;PMS5003;69154;52.076;5.110;2023-08-20T06:40:19;5;5;
72329;PMS5003;69154;52.076;5.110;2023-08-20T06:42:45;5;5;
72329;PMS5003;69154;52.076;5.110;2023-08-20T06:45:11;5;5;
72329;PMS5003;69154;52.076;5.110;2023-08-20T06:47:36;6;5;
72329;PMS5003;69154;52.076;5.110;2023-08-20T06:50:02;4;4;
72329;PMS5003;69154;52.076;5.110;2023-08-20T06:52:28;4;4;
72329;PMS5003;69154;52.076;5.110;2023-08-20T06:54:54;4;4;
72329;PMS5003;69154;52.076;5.110;2023-08-20T06:57:19;4;4;
72329;PMS5003;69154;52.076;5.110;2023-08-20T06:59:45;6;5;
72329;PMS5003;69154;52.076;5.110;2023-08-20T07:02:11;4;4;
72329;PMS5003;69154;52.076;5.110;2023-08-20T07:04:37;5;5;
72329;PMS5003;69154;52.076;5.110;2023-08-20T07:07:03;6;6;
72329;PMS5003;69154;52.076;5.110;2023-08-20T07:09:28;5;5;
72329;PMS5003;69154;52.076;5.110;2023-08-20T07:11:54;6;5;
72329;PMS5003;69154;52.076;5.110;2023-08-20T07:14:20;5;5;
72329;PMS5003;69154;52.076;5.110;2023-08-20T07:16:45;6;5;
72329;PMS5003;69154;52.076;5.110;2023-08-20T07:19:11;4;4;
72329;PMS5003;69154;52.076;5.110;2023-08-20T07:21:37;6;5;
72329;PMS5003;69154;52.076;5.110;2023-08-20T07:24:03;8;7;
72329;PMS5003;69154;52.076;5.110;2023-08-20T07:26:28;6;5;
72329;PMS5003;69154;52.076;5.110;2023-08-20T07:28:53;6;6;
72329;PMS5003;69154;52.076;5.110;2023-08-20T07:31:19;6;6;
72329;PMS5003;69154;52.076;5.110;2023-08-20T07:33:45;6;6;
72329;PMS5003;69154;52.076;5.110;2023-08-20T07:36:11;7;6;
72329;PMS5003;69154;52.076;5.110;2023-08-20T07:38:36;4;4;
72329;PMS5003;69154;52.076;5.110;2023-08-20T07:41:02;5;5;
72329;PMS5003;69154;52.076;5.110;2023-08-20T07:43:28;4;4;
72329;PMS5003;69154;52.076;5.110;2023-08-20T07:45:54;5;5;
72329;PMS5003;69154;52.076;5.110;2023-08-20T07:48:19;5;5;
72329;PMS5003;69154;52.076;5.110;2023-08-20T07:50:45;5;4;
72329;PMS5003;69154;52.076;5.110;2023-08-20T07:53:11;6;5;
72329;PMS5003;69154;52.076;5.110;2023-08-20T07:55:37;4;4;
72329;PMS5003;69154;52.076;5.110;2023-08-20T07:58:02;5;5;
72329;PMS5003;69154;52.076;5.110;2023-08-20T08:00:28;5;4;
72329;PMS5003;69154;52.076;5.110;2023-08-20T08:02:54;4;4;
72329;PMS5003;69154;52.076;5.110;2023-08-20T08:05:19;4;4;
72329;PMS5003;69154;52.076;5.110;2023-08-20T08:07:45;4;4;
72329;PMS5003;69154;52.076;5.110;2023-08-20T08:10:11;4;4;
72329;PMS5003;69154;52.076;5.110;2023-08-20T08:12:36;5;4;
72329;PMS5003;69154;52.076;5.110;2023-08-20T08:15:02;6;6;
72329;PMS5003;69154;52.076;5.110;2023-08-20T08:17:28;5;4;
72329;PMS5003;69154;52.076;5.110;2023-08-20T08:19:54;6;5;
72329;PMS5003;69154;52.076;5.110;2023-08-20T08:22:19;7;6;
72329;PMS5003;69154;52.076;5.110;2023-08-20T08:24:45;5;5;
72329;PMS5003;69154;52.076;5.110;2023-08-20T08:27:10;7;6;
72329;PMS5003;69154;52.076;5.110;2023-08-20T08:29:36;6;4;
72329;PMS5003;69154;52.076;5.110;2023-08-20T08:32:02;8;6;
72329;PMS5003;69154;52.076;5.110;2023-08-20T08:34:27;4;4;
72329;PMS5003;69154;52.076;5.110;2023-08-20T08:36:53;6;6;
72329;PMS5003;69154;52.076;5.110;2023-08-20T08:39:19;6;4;
72329;PMS5003;69154;52.076;5.110;2023-08-20T08:41:45;6;5;
72329;PMS5003;69154;52.076;5.110;2023-08-20T08:44:10;5;5;
72329;PMS5003;69154;52.076;5.110;2023-08-20T08:46:36;6;5;
72329;PMS5003;69154;52.076;5.110;2023-08-20T08:49:01;3;3;
72329;PMS5003;69154;52.076;5.110;2023-08-20T08:51:26;7;6;
72329;PMS5003;69154;52.076;5.110;2023-08-20T08:53:52;5;5;
72329;PMS5003;69154;52.076;5.110;2023-08-20T08:56:18;3;3;
72329;PMS5003;69154;52.076;5.110;2023-08-20T08:58:44;4;3;
72329;PMS5003;69154;52.076;5.110;2023-08-20T09:01:10;6;5;
72329;PMS5003;69154;52.076;5.110;2023-08-20T09:03:35;4;4;
72329;PMS5003;69154;52.076;5.110;2023-08-20T09:06:01;5;5;
72329;PMS5003;69154;52.076;5.110;2023-08-20T09:08:27;3;3;
72329;PMS5003;69154;52.076;5.110;2023-08-20T09:10:54;3;3;
72329;PMS5003;69154;52.076;5.110;2023-08-20T09:13:19;5;3;
72329;PMS5003;69154;52.076;5.110;2023-08-20T09:15:44;2;2;
72329;PMS5003;69154;52.076;5.110;2023-08-20T09:18:09;2;2;
72329;PMS5003;69154;52.076;5.110;2023-08-20T09:20:35;4;3;
72329;PMS5003;69154;52.076;5.110;2023-08-20T09:23:00;6;5;
72329;PMS5003;69154;52.076;5.110;2023-08-20T09:25:26;5;3;
72329;PMS5003;69154;52.076;5.110;2023-08-20T09:27:52;2;1;
72329;PMS5003;69154;52.076;5.110;2023-08-20T09:30:17;2;2;
72329;PMS5003;69154;52.076;5.110;2023-08-20T09:32:43;1;1;
72329;PMS5003;69154;52.076;5.110;2023-08-20T09:35:17;2;2;
72329;PMS5003;69154;52.076;5.110;2023-08-20T09:37:34;2;1;
72329;PMS5003;69154;52.076;5.110;2023-08-20T09:40:00;2;2;
72329;PMS5003;69154;52.076;5.110;2023-08-20T09:42:26;2;2;
72329;PMS5003;69154;52.076;5.110;2023-08-20T09:44:51;2;2;
72329;PMS5003;69154;52.076;5.110;2023-08-20T09:47:17;3;3;
72329;PMS5003;69154;52.076;5.110;2023-08-20T09:49:43;2;1;
72329;PMS5003;69154;52.076;5.110;2023-08-20T09:52:09;3;3;
72329;PMS5003;69154;52.076;5.110;2023-08-20T09:54:39;3;3;
72329;PMS5003;69154;52.076;5.110;2023-08-20T09:57:00;3;2;
72329;PMS5003;69154;52.076;5.110;2023-08-20T09:59:25;3;3;
72329;PMS5003;69154;52.076;5.110;2023-08-20T10:01:51;1;1;
72329;PMS5003;69154;52.076;5.110;2023-08-20T10:04:16;1;1;
72329;PMS5003;69154;52.076;5.110;2023-08-20T10:06:42;1;1;
72329;PMS5003;69154;52.076;5.110;2023-08-20T10:09:07;1;1;
72329;PMS5003;69154;52.076;5.110;2023-08-20T10:11:33;1;0;
72329;PMS5003;69154;52.076;5.110;2023-08-20T10:13:58;1;0;
72329;PMS5003;69154;52.076;5.110;2023-08-20T10:16:24;2;2;
72329;PMS5003;69154;52.076;5.110;2023-08-20T10:18:49;3;2;
72329;PMS5003;69154;52.076;5.110;2023-08-20T10:21:14;1;1;
72329;PMS5003;69154;52.076;5.110;2023-08-20T10:23:40;2;1;
72329;PMS5003;69154;52.076;5.110;2023-08-20T10:26:06;1;1;
72329;PMS5003;69154;52.076;5.110;2023-08-20T10:28:30;3;2;
72329;PMS5003;69154;52.076;5.110;2023-08-20T10:31:03;2;2;
72329;PMS5003;69154;52.076;5.110;2023-08-20T10:33:21;0;0;
72329;PMS5003;69154;52.076;5.110;2023-08-20T10:35:46;2;2;
72329;PMS5003;69154;52.076;5.110;2023-08-20T10:38:12;0;0;
72329;PMS5003;69154;52.076;5.110;2023-08-20T10:40:52;3;3;
72329;PMS5003;69154;52.076;5.110;2023-08-20T10:43:01;5;5;
72329;PMS5003;69154;52.076;5.110;2023-08-20T10:45:27;8;8;
72329;PMS5003;69154;52.076;5.110;2023-08-20T10:47:53;4;4;
72329;PMS5003;69154;52.076;5.110;2023-08-20T10:50:18;7;7;
72329;PMS5003;69154;52.076;5.110;2023-08-20T10:52:47;4;3;
72329;PMS5003;69154;52.076;5.110;2023-08-20T10:55:10;3;3;
72329;PMS5003;69154;52.076;5.110;2023-08-20T10:57:34;1;1;
72329;PMS5003;69154;52.076;5.110;2023-08-20T10:59:59;3;3;
72329;PMS5003;69154;52.076;5.110;2023-08-20T11:02:24;1;1;
72329;PMS5003;69154;52.076;5.110;2023-08-20T11:04:50;5;4;
72329;PMS5003;69154;52.076;5.110;2023-08-20T11:07:16;2;2;
72329;PMS5003;69154;52.076;5.110;2023-08-20T11:09:40;1;1;
72329;PMS5003;69154;52.076;5.110;2023-08-20T11:12:06;3;2;
72329;PMS5003;69154;52.076;5.110;2023-08-20T11:14:31;1;1;
72329;PMS5003;69154;52.076;5.110;2023-08-20T11:16:56;7;7;
72329;PMS5003;69154;52.076;5.110;2023-08-20T11:19:22;4;4;
72329;PMS5003;69154;52.076;5.110;2023-08-20T11:21:47;4;3;
72329;PMS5003;69154;52.076;5.110;2023-08-20T11:24:12;2;2;
72329;PMS5003;69154;52.076;5.110;2023-08-20T11:26:38;3;2;
72329;PMS5003;69154;52.076;5.110;2023-08-20T11:29:05;1;1;
72329;PMS5003;69154;52.076;5.110;2023-08-20T11:31:28;1;1;
72329;PMS5003;69154;52.076;5.110;2023-08-20T11:33:53;3;3;
72329;PMS5003;69154;52.076;5.110;2023-08-20T11:36:19;1;1;
72329;PMS5003;69154;52.076;5.110;2023-08-20T11:38:48;2;2;
72329;PMS5003;69154;52.076;5.110;2023-08-20T11:41:10;5;5;
72329;PMS5003;69154;52.076;5.110;2023-08-20T11:43:35;7;6;
72329;PMS5003;69154;52.076;5.110;2023-08-20T11:46:00;1;1;
72329;PMS5003;69154;52.076;5.110;2023-08-20T11:48:25;3;2;
72329;PMS5003;69154;52.076;5.110;2023-08-20T11:50:50;2;2;
72329;PMS5003;69154;52.076;5.110;2023-08-20T11:53:17;1;1;
72329;PMS5003;69154;52.076;5.110;2023-08-20T11:55:41;2;2;
72329;PMS5003;69154;52.076;5.110;2023-08-20T11:58:08;1;1;
72329;PMS5003;69154;52.076;5.110;2023-08-20T12:00:31;1;1;
72329;PMS5003;69154;52.076;5.110;2023-08-20T12:02:57;1;1;
72329;PMS5003;69154;52.076;5.110;2023-08-20T12:05:22;2;1;
72329;PMS5003;69154;52.076;5.110;2023-08-20T12:07:54;2;2;
72329;PMS5003;69154;52.076;5.110;2023-08-20T12:10:20;2;2;
72329;PMS5003;69154;52.076;5.110;2023-08-20T12:12:37;5;5;
72329;PMS5003;69154;52.076;5.110;2023-08-20T12:15:03;3;3;
72329;PMS5003;69154;52.076;5.110;2023-08-20T12:17:28;3;3;
72329;PMS5003;69154;52.076;5.110;2023-08-20T12:19:54;3;3;
72329;PMS5003;69154;52.076;5.110;2023-08-20T12:22:19;2;1;
72329;PMS5003;69154;52.076;5.110;2023-08-20T12:24:44;2;2;
72329;PMS5003;69154;52.076;5.110;2023-08-20T12:27:10;4;3;
72329;PMS5003;69154;52.076;5.110;2023-08-20T12:29:35;2;1;
72329;PMS5003;69154;52.076;5.110;2023-08-20T12:32:01;2;2;
72329;PMS5003;69154;52.076;5.110;2023-08-20T12:34:26;2;2;
72329;PMS5003;69154;52.076;5.110;2023-08-20T12:36:51;2;2;
72329;PMS5003;69154;52.076;5.110;2023-08-20T12:39:17;2;2;
72329;PMS5003;69154;52.076;5.110;2023-08-20T12:41:42;3;2;
72329;PMS5003;69154;52.076;5.110;2023-08-20T12:44:08;1;1;
72329;PMS5003;69154;52.076;5.110;2023-08-20T12:46:33;1;1;
72329;PMS5003;69154;52.076;5.110;2023-08-20T12:48:58;3;3;
72329;PMS5003;69154;52.076;5.110;2023-08-20T12:51:24;3;3;
72329;PMS5003;69154;52.076;5.110;2023-08-20T12:53:49;2;2;
72329;PMS5003;69154;52.076;5.110;2023-08-20T12:56:14;2;2;
72329;PMS5003;69154;52.076;5.110;2023-08-20T12:58:40;3;2;
72329;PMS5003;69154;52.076;5.110;2023-08-20T13:01:05;2;2;
72329;PMS5003;69154;52.076;5.110;2023-08-20T13:03:31;1;1;
72329;PMS5003;69154;52.076;5.110;2023-08-20T13:05:56;1;1;
72329;PMS5003;69154;52.076;5.110;2023-08-20T13:08:21;1;1;
72329;PMS5003;69154;52.076;5.110;2023-08-20T13:10:48;2;2;
72329;PMS5003;69154;52.076;5.110;2023-08-20T13:13:12;0;0;
72329;PMS5003;69154;52.076;5.110;2023-08-20T13:15:37;2;2;
72329;PMS5003;69154;52.076;5.110;2023-08-20T13:18:03;2;2;
72329;PMS5003;69154;52.076;5.110;2023-08-20T13:20:28;2;2;
72329;PMS5003;69154;52.076;5.110;2023-08-20T13:22:53;1;1;
72329;PMS5003;69154;52.076;5.110;2023-08-20T13:25:18;1;1;
72329;PMS5003;69154;52.076;5.110;2023-08-20T13:27:43;1;1;
72329;PMS5003;69154;52.076;5.110;2023-08-20T13:30:09;1;1;
72329;PMS5003;69154;52.076;5.110;2023-08-20T13:32:34;2;1;
72329;PMS5003;69154;52.076;5.110;2023-08-20T13:34:59;0;0;
72329;PMS5003;69154;52.076;5.110;2023-08-20T13:37:24;0;0;
72329;PMS5003;69154;52.076;5.110;2023-08-20T13:39:49;0;0;
72329;PMS5003;69154;52.076;5.110;2023-08-20T13:42:14;1;1;
72329;PMS5003;69154;52.076;5.110;2023-08-20T13:44:39;2;2;
72329;PMS5003;69154;52.076;5.110;2023-08-20T13:47:05;1;1;
72329;PMS5003;69154;52.076;5.110;2023-08-20T13:49:30;1;0;
72329;PMS5003;69154;52.076;5.110;2023-08-20T13:51:55;2;2;
72329;PMS5003;69154;52.076;5.110;2023-08-20T13:54:20;2;2;
72329;PMS5003;69154;52.076;5.110;2023-08-20T13:56:45;3;3;
72329;PMS5003;69154;52.076;5.110;2023-08-20T13:59:11;2;2;
72329;PMS5003;69154;52.076;5.110;2023-08-20T14:01:36;2;2;
72329;PMS5003;69154;52.076;5.110;2023-08-20T14:04:02;2;2;
72329;PMS5003;69154;52.076;5.110;2023-08-20T14:06:27;2;2;
72329;PMS5003;69154;52.076;5.110;2023-08-20T14:08:52;1;1;
72329;PMS5003;69154;52.076;5.110;2023-08-20T14:11:18;0;0;
72329;PMS5003;69154;52.076;5.110;2023-08-20T14:13:43;2;2;
72329;PMS5003;69154;52.076;5.110;2023-08-20T14:16:09;1;1;
72329;PMS5003;69154;52.076;5.110;2023-08-20T14:18:34;1;1;
72329;PMS5003;69154;52.076;5.110;2023-08-20T14:20:59;0;0;
72329;PMS5003;69154;52.076;5.110;2023-08-20T14:23:24;0;0;
72329;PMS5003;69154;52.076;5.110;2023-08-20T14:25:49;0;0;
72329;PMS5003;69154;52.076;5.110;2023-08-20T14:28:15;2;2;
72329;PMS5003;69154;52.076;5.110;2023-08-20T14:30:40;2;2;
72329;PMS5003;69154;52.076;5.110;2023-08-20T14:33:05;2;2;
72329;PMS5003;69154;52.076;5.110;2023-08-20T14:35:30;0;0;
72329;PMS5003;69154;52.076;5.110;2023-08-20T14:37:55;1;1;
72329;PMS5003;69154;52.076;5.110;2023-08-20T14:40:20;2;2;
72329;PMS5003;69154;52.076;5.110;2023-08-20T14:42:46;2;2;
72329;PMS5003;69154;52.076;5.110;2023-08-20T14:45:11;2;2;
72329;PMS5003;69154;52.076;5.110;2023-08-20T14:47:37;1;0;
72329;PMS5003;69154;52.076;5.110;2023-08-20T14:50:02;3;2;
72329;PMS5003;69154;52.076;5.110;2023-08-20T14:52:27;2;1;
72329;PMS5003;69154;52.076;5.110;2023-08-20T14:54:53;1;1;
72329;PMS5003;69154;52.076;5.110;2023-08-20T14:57:18;1;1;
72329;PMS5003;69154;52.076;5.110;2023-08-20T14:59:43;3;2;
72329;PMS5003;69154;52.076;5.110;2023-08-20T15:02:09;1;1;
72329;PMS5003;69154;52.076;5.110;2023-08-20T15:04:33;3;3;
72329;PMS5003;69154;52.076;5.110;2023-08-20T15:06:59;0;0;
72329;PMS5003;69154;52.076;5.110;2023-08-20T15:09:24;3;3;
72329;PMS5003;69154;52.076;5.110;2023-08-20T15:11:49;4;3;
72329;PMS5003;69154;52.076;5.110;2023-08-20T15:14:14;1;1;
72329;PMS5003;69154;52.076;5.110;2023-08-20T15:16:40;1;1;
72329;PMS5003;69154;52.076;5.110;2023-08-20T15:19:05;2;2;
72329;PMS5003;69154;52.076;5.110;2023-08-20T15:21:30;2;2;
72329;PMS5003;69154;52.076;5.110;2023-08-20T15:23:56;1;1;
72329;PMS5003;69154;52.076;5.110;2023-08-20T15:26:21;4;4;
72329;PMS5003;69154;52.076;5.110;2023-08-20T15:28:46;4;3;
72329;PMS5003;69154;52.076;5.110;2023-08-20T15:31:12;3;2;
72329;PMS5003;69154;52.076;5.110;2023-08-20T15:33:37;2;2;
72329;PMS5003;69154;52.076;5.110;2023-08-20T15:36:02;1;1;
72329;PMS5003;69154;52.076;5.110;2023-08-20T15:38:28;2;2;
72329;PMS5003;69154;52.076;5.110;2023-08-20T15:40:53;2;2;
72329;PMS5003;69154;52.076;5.110;2023-08-20T15:43:19;2;2;
72329;PMS5003;69154;52.076;5.110;2023-08-20T15:45:44;1;1;
72329;PMS5003;69154;52.076;5.110;2023-08-20T15:48:09;3;2;
72329;PMS5003;69154;52.076;5.110;2023-08-20T15:50:35;2;2;
72329;PMS5003;69154;52.076;5.110;2023-08-20T15:53:00;2;2;
72329;PMS5003;69154;52.076;5.110;2023-08-20T15:55:25;2;2;
72329;PMS5003;69154;52.076;5.110;2023-08-20T15:57:51;1;1;
72329;PMS5003;69154;52.076;5.110;2023-08-20T16:00:16;2;2;
72329;PMS5003;69154;52.076;5.110;2023-08-20T16:02:42;3;2;
72329;PMS5003;69154;52.076;5.110;2023-08-20T16:05:06;1;1;
72329;PMS5003;69154;52.076;5.110;2023-08-20T16:07:32;3;2;
72329;PMS5003;69154;52.076;5.110;2023-08-20T16:09:57;3;3;
72329;PMS5003;69154;52.076;5.110;2023-08-20T16:12:23;1;1;
72329;PMS5003;69154;52.076;5.110;2023-08-20T16:14:48;1;1;
72329;PMS5003;69154;52.076;5.110;2023-08-20T16:17:14;4;3;
72329;PMS5003;69154;52.076;5.110;2023-08-20T16:19:39;2;2;
72329;PMS5003;69154;52.076;5.110;2023-08-20T16:22:05;2;2;
72329;PMS5003;69154;52.076;5.110;2023-08-20T16:24:30;2;2;
72329;PMS5003;69154;52.076;5.110;2023-08-20T16:26:56;1;1;
72329;PMS5003;69154;52.076;5.110;2023-08-20T16:29:21;2;2;
72329;PMS5003;69154;52.076;5.110;2023-08-20T16:31:47;2;2;
72329;PMS5003;69154;52.076;5.110;2023-08-20T16:34:12;1;1;
72329;PMS5003;69154;52.076;5.110;2023-08-20T16:36:38;2;0;
72329;PMS5003;69154;52.076;5.110;2023-08-20T16:39:03;1;1;